Time;durP1;ratioP1;P1;durP2;ratioP2;P2;SDS_P1;SDS_P2;PMS_P1;PMS_P2;Temp;Humidity;BMP_temperature;BMP_pressure;BME280_temperature;BME280_humidity;BME280_pressure;Samples;Min_cycle;Max_cycle;Signal;HPM_P1;HPM_P2
2022/09/22 05:01:30;;;;;;;9.60;4.97;;;4.90;99.90;;;;;;6097154;23;20855;-75
2022/09/22 05:03:56;;;;;;;11.23;4.82;;;4.90;99.90;;;;;;6222419;23;20072;-74
2022/09/22 05:06:22;;;;;;;11.52;5.82;;;4.80;99.90;;;;;;6224266;23;19996;-76
2022/09/22 05:08:47;;;;;;;8.85;5.05;;;4.80;99.90;;;;;;6247100;23;20170;-74
2022/09/22 05:11:13;;;;;;;10.55;5.15;;;4.80;99.90;;;;;;6224160;23;20008;-75
2022/09/22 05:13:39;;;;;;;9.40;5.18;;;4.70;99.90;;;;;;6224147;23;20301;-74
2022/09/22 05:16:07;;;;;;;9.93;5.50;;;4.80;99.90;;;;;;6224038;23;20004;-74
2022/09/22 05:18:33;;;;;;;10.77;5.97;;;4.80;99.90;;;;;;6224555;23;19999;-75
2022/09/22 05:21:00;;;;;;;11.40;5.25;;;4.80;99.90;;;;;;6223279;23;20000;-76
2022/09/22 05:23:26;;;;;;;11.27;5.63;;;4.80;99.90;;;;;;6224656;23;20000;-75
2022/09/22 05:25:52;;;;;;;16.17;7.13;;;4.90;99.90;;;;;;6223086;23;20005;-74
2022/09/22 05:28:19;;;;;;;12.32;6.32;;;5.00;99.90;;;;;;6232907;23;20007;-74
2022/09/22 05:30:48;;;;;;;14.82;7.32;;;5.00;99.90;;;;;;6231184;23;19997;-74
2022/09/22 05:33:13;;;;;;;14.18;7.75;;;5.10;99.90;;;;;;6231332;23;20027;-74
2022/09/22 05:35:40;;;;;;;16.90;7.55;;;5.10;99.90;;;;;;6226258;23;20001;-74
2022/09/22 05:38:06;;;;;;;17.40;7.90;;;5.20;99.90;;;;;;6223153;23;20000;-74
2022/09/22 05:40:31;;;;;;;18.48;7.65;;;5.30;99.90;;;;;;6197504;23;20051;-74
2022/09/22 05:42:57;;;;;;;13.82;7.20;;;5.30;99.90;;;;;;6221262;23;20008;-74
2022/09/22 05:45:23;;;;;;;17.10;7.57;;;5.40;99.90;;;;;;6247299;23;20044;-73
2022/09/22 05:47:49;;;;;;;14.27;6.75;;;5.50;99.90;;;;;;6222180;23;20027;-74
2022/09/22 05:50:16;;;;;;;12.65;6.68;;;5.60;99.90;;;;;;6247031;23;20336;-73
2022/09/22 05:52:42;;;;;;;17.20;8.15;;;5.70;99.90;;;;;;6223381;23;20047;-77
2022/09/22 05:55:08;;;;;;;19.40;9.50;;;5.80;99.90;;;;;;6223664;23;20001;-74
2022/09/22 05:57:34;;;;;;;20.58;8.70;;;5.80;99.90;;;;;;6223503;23;20016;-74
2022/09/22 06:00:00;;;;;;;19.13;8.98;;;5.90;99.90;;;;;;6222881;23;20036;-74
2022/09/22 06:02:26;;;;;;;16.73;8.02;;;5.90;99.90;;;;;;6223133;23;20238;-74
2022/09/22 06:04:52;;;;;;;21.27;9.88;;;6.00;99.90;;;;;;6224474;23;20011;-75
2022/09/22 06:07:22;;;;;;;25.98;9.75;;;6.00;99.90;;;;;;6224898;23;20005;-75
2022/09/22 06:09:49;;;;;;;38.97;14.75;;;6.10;99.90;;;;;;6224487;23;19996;-75
2022/09/22 06:12:15;;;;;;;37.28;14.23;;;6.30;99.90;;;;;;6225806;23;20001;-76
2022/09/22 06:14:42;;;;;;;33.97;12.90;;;6.30;99.90;;;;;;6198892;23;20011;-76
2022/09/22 06:17:11;;;;;;;26.13;9.82;;;6.50;99.90;;;;;;6224623;23;19988;-78
2022/09/22 06:19:38;;;;;;;20.17;8.52;;;6.60;99.90;;;;;;6198758;23;20230;-74
2022/09/22 06:22:04;;;;;;;18.17;8.40;;;6.70;99.90;;;;;;6198312;23;20406;-75
2022/09/22 06:24:30;;;;;;;22.98;8.45;;;6.80;99.90;;;;;;6225563;23;20001;-78
2022/09/22 06:26:56;;;;;;;25.30;9.15;;;6.80;99.90;;;;;;6224413;23;20000;-77
2022/09/22 06:29:21;;;;;;;21.67;9.10;;;6.90;99.90;;;;;;6224165;23;20223;-77
2022/09/22 06:31:48;;;;;;;23.50;9.15;;;6.90;99.90;;;;;;6224171;23;19996;-77
2022/09/22 06:34:14;;;;;;;24.48;8.85;;;7.10;99.90;;;;;;6225085;23;19992;-77
2022/09/22 06:36:44;;;;;;;22.10;8.50;;;7.10;99.90;;;;;;6224676;23;20055;-77
2022/09/22 06:39:10;;;;;;;20.48;8.38;;;7.20;99.90;;;;;;6201292;23;19992;-79
2022/09/22 06:41:36;;;;;;;16.02;8.20;;;7.30;99.90;;;;;;6199717;23;20004;-78
2022/09/22 06:44:04;;;;;;;18.45;8.15;;;7.40;99.90;;;;;;6223619;23;20016;-78
2022/09/22 06:46:32;;;;;;;24.05;14.43;;;7.50;99.90;;;;;;6225250;23;20016;-78
2022/09/22 06:48:58;;;;;;;;;;;7.60;99.90;;;;;;6222905;23;20060;-77
2022/09/22 06:51:31;;;;;;;45.90;28.13;;;7.70;99.90;;;;;;6223567;23;19946;-78
2022/09/22 06:53:58;;;;;;;26.27;15.30;;;7.70;99.90;;;;;;6223209;23;20229;-77
2022/09/22 06:56:25;;;;;;;28.77;10.45;;;7.80;99.90;;;;;;6223496;23;20004;-77
2022/09/22 06:58:51;;;;;;;18.63;8.68;;;7.80;99.90;;;;;;6223371;23;19993;-75
2022/09/22 07:01:18;;;;;;;18.98;8.02;;;7.90;99.90;;;;;;6223650;23;20023;-75
2022/09/22 07:03:45;;;;;;;19.67;8.02;;;8.00;99.90;;;;;;6193235;23;20011;-75
2022/09/22 07:06:17;;;;;;;18.00;7.75;;;8.10;99.90;;;;;;6192563;23;20009;-75
2022/09/22 07:08:47;;;;;;;17.95;7.63;;;8.30;99.90;;;;;;6167441;23;20193;-75
2022/09/22 07:11:16;;;;;;;18.08;7.00;;;8.40;99.90;;;;;;6193753;23;20044;-76
2022/09/22 07:13:45;;;;;;;15.70;6.50;;;8.40;99.90;;;;;;6193456;23;20060;-75
2022/09/22 07:16:16;;;;;;;18.05;6.00;;;8.50;99.90;;;;;;6166449;23;20337;-75
2022/09/22 07:18:53;;;;;;;16.20;6.90;;;8.60;99.90;;;;;;6193731;23;20027;-76
2022/09/22 07:21:26;;;;;;;12.20;6.63;;;8.80;99.90;;;;;;6193060;23;20032;-78
2022/09/22 07:23:56;;;;;;;12.98;5.72;;;8.90;99.90;;;;;;6192769;23;19997;-76
2022/09/22 07:26:28;;;;;;;10.77;5.70;;;9.00;99.90;;;;;;6193335;23;20009;-76
2022/09/22 07:28:58;;;;;;;19.25;10.43;;;9.10;99.90;;;;;;6192540;23;20001;-76
2022/09/22 07:31:25;;;;;;;15.95;9.05;;;9.20;99.90;;;;;;6193282;23;20001;-76
2022/09/22 07:33:52;;;;;;;13.35;5.97;;;9.30;99.90;;;;;;6193031;23;19997;-77
2022/09/22 07:36:23;;;;;;;12.55;6.78;;;9.40;99.90;;;;;;6192925;23;20004;-75
2022/09/22 07:38:51;;;;;;;18.33;7.65;;;9.50;99.90;;;;;;6166836;23;20039;-76
2022/09/22 07:41:23;;;;;;;14.10;6.28;;;9.60;99.90;;;;;;6193083;23;20008;-76
2022/09/22 07:43:51;;;;;;;14.02;7.13;;;9.70;99.90;;;;;;6166559;23;20020;-77
2022/09/22 07:46:17;;;;;;;13.07;7.75;;;9.70;99.90;;;;;;6192678;23;20202;-75
2022/09/22 07:48:46;;;;;;;17.80;7.40;;;9.80;99.90;;;;;;6167025;23;20001;-77
2022/09/22 07:51:19;;;;;;;13.07;7.40;;;9.80;99.90;;;;;;6192533;23;20008;-76
2022/09/22 07:54:05;;;;;;;12.10;6.93;;;9.80;99.90;;;;;;6193538;23;19997;-77
2022/09/22 07:56:43;;;;;;;11.55;6.75;;;9.90;99.90;;;;;;6193038;23;20298;-80
2022/09/22 07:59:12;;;;;;;14.07;7.65;;;10.00;99.90;;;;;;6192624;23;20005;-76
2022/09/22 08:01:43;;;;;;;13.20;8.00;;;10.10;99.90;;;;;;6195705;23;20008;-74
2022/09/22 08:04:15;;;;;;;14.02;7.50;;;10.20;99.90;;;;;;6222466;23;20012;-75
2022/09/22 08:06:46;;;;;;;15.05;7.03;;;10.40;99.90;;;;;;6196870;23;20000;-76
2022/09/22 08:09:12;;;;;;;13.30;6.72;;;10.50;99.90;;;;;;6222502;23;20001;-75
2022/09/22 08:11:38;;;;;;;19.08;11.32;;;10.60;99.90;;;;;;6222658;23;19997;-75
2022/09/22 08:14:06;;;;;;;14.15;7.25;;;10.70;99.90;;;;;;6222192;23;20007;-75
2022/09/22 08:16:38;;;;;;;13.40;7.25;;;10.80;99.90;;;;;;6222365;23;20317;-78
2022/09/22 08:19:11;;;;;;;12.23;6.53;;;10.80;99.90;;;;;;6222669;23;20060;-77
2022/09/22 08:21:41;;;;;;;11.32;6.45;;;11.00;99.90;;;;;;6222927;23;19997;-72
2022/09/22 08:24:09;;;;;;;13.57;6.80;;;11.00;99.90;;;;;;6222061;23;20222;-72
2022/09/22 08:26:37;;;;;;;14.50;6.00;;;11.30;99.90;;;;;;6222497;23;20012;-75
2022/09/22 08:29:04;;;;;;;14.47;5.97;;;11.40;99.90;;;;;;6222215;23;20270;-75
2022/09/22 08:31:30;;;;;;;11.68;6.10;;;11.50;99.90;;;;;;6222300;23;20400;-74
2022/09/22 08:33:56;;;;;;;7.57;4.45;;;11.60;99.90;;;;;;6195614;23;20012;-73
2022/09/22 08:36:26;;;;;;;9.68;5.60;;;11.70;99.90;;;;;;6221621;23;20004;-75
2022/09/22 08:38:53;;;;;;;10.55;5.18;;;11.80;99.90;;;;;;6221038;23;20054;-75
2022/09/22 08:41:37;;;;;;;11.13;5.20;;;11.90;99.90;;;;;;6222203;23;19997;-74
2022/09/22 08:44:16;;;;;;;11.60;5.40;;;12.00;99.90;;;;;;6222097;23;20007;-74
2022/09/22 08:46:46;;;;;;;11.52;5.60;;;12.00;99.90;;;;;;6222954;23;20016;-74
2022/09/22 08:52:14;;;;;;;10.35;4.97;;;12.30;99.90;;;;;;6221938;23;20000;-73
2022/09/22 08:54:42;;;;;;;8.13;5.05;;;12.30;99.90;;;;;;6222238;23;20004;-72
2022/09/22 08:57:43;;;;;;;9.15;4.38;;;12.40;99.90;;;;;;6194832;23;20011;-73
2022/09/22 09:00:17;;;;;;;10.93;4.93;;;12.40;99.90;;;;;;6221712;23;20003;-73
2022/09/22 09:03:15;;;;;;;9.70;5.28;;;12.60;99.90;;;;;;6222641;23;20040;-73
2022/09/22 09:06:03;;;;;;;8.15;4.60;;;12.70;99.90;;;;;;6220795;23;20012;-72
2022/09/22 09:09:05;;;;;;;12.30;6.05;;;12.90;99.90;;;;;;6222704;23;20000;-73
2022/09/22 09:12:04;;;;;;;7.85;4.15;;;13.10;99.90;;;;;;6222602;23;19997;-71
2022/09/22 09:14:39;;;;;;;6.22;3.65;;;13.20;99.90;;;;;;6222079;23;20012;-73
2022/09/22 09:17:14;;;;;;;7.18;3.67;;;13.20;99.70;;;;;;6221466;23;19997;-73
2022/09/22 09:19:43;;;;;;;6.93;3.78;;;13.30;99.60;;;;;;6221946;23;20000;-71
2022/09/22 09:22:24;;;;;;;;;;;13.40;99.40;;;;;;6222933;23;19997;-81
2022/09/22 09:24:53;;;;;;;7.10;3.22;;;13.40;99.30;;;;;;6222574;23;19915;-75
2022/09/22 09:27:23;;;;;;;15.48;6.97;;;13.60;99.00;;;;;;6195550;23;20364;-75
2022/09/22 09:30:08;;;;;;;10.23;4.65;;;13.90;99.10;;;;;;6222373;23;20282;-75
2022/09/22 09:32:46;;;;;;;9.25;3.50;;;14.00;98.00;;;;;;6222367;23;19996;-75
2022/09/22 09:35:18;;;;;;;5.95;3.13;;;14.10;97.60;;;;;;6221631;23;20005;-74
2022/09/22 09:37:46;;;;;;;7.38;2.83;;;14.30;96.80;;;;;;6222586;23;19996;-75
2022/09/22 09:40:16;;;;;;;5.68;2.83;;;14.30;96.50;;;;;;6223600;23;20345;-73
2022/09/22 09:42:43;;;;;;;6.25;2.78;;;14.30;96.60;;;;;;6223541;23;20024;-73
2022/09/22 09:45:19;;;;;;;6.20;2.60;;;14.50;96.30;;;;;;6223093;23;20001;-73
2022/09/22 09:48:02;;;;;;;4.40;2.28;;;14.50;94.90;;;;;;6224345;23;19997;-73
2022/09/22 09:50:30;;;;;;;4.68;2.60;;;14.50;95.40;;;;;;6223692;23;20051;-72
2022/09/22 09:52:58;;;;;;;7.05;2.55;;;14.70;95.40;;;;;;6224071;23;19995;-73
2022/09/22 09:55:24;;;;;;;6.63;2.50;;;14.70;95.30;;;;;;6196485;23;20039;-73
2022/09/22 09:58:11;;;;;;;5.80;3.80;;;14.80;94.70;;;;;;6223751;23;20287;-74
2022/09/22 10:01:13;;;;;;;10.73;6.97;;;14.90;94.90;;;;;;6224156;23;19996;-73
2022/09/22 10:03:53;;;;;;;4.47;2.80;;;15.10;93.80;;;;;;6132043;23;20081;-74
2022/09/22 10:06:24;;;;;;;5.68;2.30;;;15.20;93.50;;;;;;6188967;23;20009;-73
2022/09/22 10:08:50;;;;;;;4.43;2.08;;;15.20;92.90;;;;;;6220693;23;19997;-74
2022/09/22 10:11:30;;;;;;;4.30;1.60;;;15.30;93.00;;;;;;6197518;23;20005;-74
2022/09/22 10:13:57;;;;;;;4.82;1.30;;;15.40;92.60;;;;;;6203280;23;20013;-72
2022/09/22 10:16:27;;;;;;;2.45;1.10;;;15.60;91.80;;;;;;6195575;23;20079;-74
2022/09/22 10:19:20;;;;;;;7.25;1.40;;;15.70;92.00;;;;;;6193059;23;19997;-72
2022/09/22 10:21:46;;;;;;;3.10;1.38;;;15.80;91.90;;;;;;6193994;23;20001;-73
2022/09/22 10:24:30;;;;;;;3.13;1.00;;;15.90;91.20;;;;;;6192871;23;20036;-74
2022/09/22 10:26:56;;;;;;;3.38;1.17;;;16.10;90.70;;;;;;6193322;23;20061;-75
2022/09/22 10:29:22;;;;;;;2.38;1.00;;;16.20;90.10;;;;;;6193726;23;20005;-71
2022/09/22 10:32:14;;;;;;;3.00;0.93;;;16.30;89.40;;;;;;6193437;23;20072;-74
2022/09/22 10:34:59;;;;;;;2.80;0.80;;;16.50;88.90;;;;;;6194272;23;20060;-77
2022/09/22 10:37:29;;;;;;;1.85;0.73;;;16.60;87.50;;;;;;6191266;23;20306;-77
2022/09/22 10:40:00;;;;;;;5.22;3.65;;;16.70;86.70;;;;;;6166075;23;20009;-79
2022/09/22 10:42:36;;;;;;;5.00;2.08;;;16.80;86.50;;;;;;6217757;23;20001;-79
2022/09/22 10:45:19;;;;;;;3.10;0.93;;;16.80;86.30;;;;;;6167510;23;20016;-77
2022/09/22 10:48:30;;;;;;;4.32;0.60;;;17.00;84.60;;;;;;6194660;23;20008;-78
2022/09/22 10:51:19;;;;;;;1.20;0.60;;;17.20;83.50;;;;;;6191552;23;20001;-78
2022/09/22 10:53:50;;;;;;;3.47;0.60;;;17.50;83.80;;;;;;6192321;23;20005;-79
2022/09/22 10:56:33;;;;;;;2.55;0.50;;;17.80;80.00;;;;;;6216614;23;20005;-78
2022/09/22 10:59:44;;;;;;;3.10;0.70;;;18.10;78.90;;;;;;6191919;23;20009;-78
2022/09/22 11:02:28;;;;;;;1.92;0.60;;;18.60;77.40;;;;;;6203355;23;20012;-78
2022/09/22 11:12:15;;;;;;;1.55;0.43;;;19.20;76.50;;;;;;6223012;23;20071;-79
2022/09/22 11:12:18;;;;;;;3.85;0.60;;;20.70;71.70;;;;;;6223783;23;20016;-79
2022/09/22 11:15:04;;;;;;;2.45;0.60;;;21.30;69.70;;;;;;6196926;23;20001;-78
2022/09/22 11:18:03;;;;;;;0.95;0.30;;;22.00;66.50;;;;;;6197172;23;20066;-77
2022/09/22 11:21:16;;;;;;;3.80;0.50;;;22.60;64.10;;;;;;6223629;23;20007;-79
2022/09/22 11:23:48;;;;;;;1.88;0.57;;;23.30;62.60;;;;;;6131972;23;20044;-77
2022/09/22 11:26:28;;;;;;;1.83;0.50;;;23.80;61.90;;;;;;6130863;23;20107;-77
2022/09/22 11:29:25;;;;;;;2.78;0.40;;;24.20;60.50;;;;;;6176527;23;20005;-79
2022/09/22 11:32:18;;;;;;;1.15;0.45;;;24.60;58.80;;;;;;6223610;23;20028;-78
2022/09/22 11:35:15;;;;;;;0.80;0.38;;;24.80;56.70;;;;;;6196459;23;20052;-76
2022/09/22 11:38:20;;;;;;;1.63;0.40;;;24.70;56.50;;;;;;6223028;23;20089;-77
2022/09/22 11:41:30;;;;;;;1.00;0.43;;;25.10;56.40;;;;;;6200069;23;20297;-77
2022/09/22 11:44:23;;;;;;;1.30;0.30;;;25.90;55.60;;;;;;6223865;23;20019;-80
2022/09/22 11:47:37;;;;;;;1.27;0.50;;;26.50;53.80;;;;;;6176294;23;20009;-80
2022/09/22 11:50:42;;;;;;;1.38;0.38;;;26.10;53.10;;;;;;6202071;23;20023;-78
2022/09/22 11:53:46;;;;;;;2.35;0.40;;;26.50;52.90;;;;;;6195757;23;20024;-78
2022/09/22 11:56:41;;;;;;;1.95;0.50;;;26.30;53.30;;;;;;6172232;23;20016;-75
2022/09/22 11:59:53;;;;;;;1.65;0.70;;;27.50;52.60;;;;;;6174739;23;20024;-78
2022/09/22 12:02:56;;;;;;;2.22;0.40;;;28.30;51.40;;;;;;6212505;23;20068;-81
2022/09/22 12:05:42;;;;;;;2.00;0.50;;;27.70;50.40;;;;;;6151968;23;20009;-81
2022/09/22 12:11:13;;;;;;;1.35;0.43;;;29.10;50.50;;;;;;6207317;23;20060;-79
2022/09/22 12:13:58;;;;;;;1.42;0.57;;;29.20;49.90;;;;;;6196680;23;20226;-77
2022/09/22 12:16:32;;;;;;;0.90;0.30;;;29.60;48.80;;;;;;6196551;23;20002;-75
2022/09/22 12:19:23;;;;;;;1.60;0.40;;;29.90;48.50;;;;;;6221237;23;20008;-72
2022/09/22 12:22:04;;;;;;;1.38;0.60;;;30.50;48.40;;;;;;6223392;23;20001;-76
2022/09/22 12:24:30;;;;;;;1.42;0.40;;;31.40;47.40;;;;;;6222579;23;20004;-75
2022/09/22 12:26:56;;;;;;;1.67;0.28;;;31.60;46.30;;;;;;6222526;23;20035;-79
2022/09/22 12:29:30;;;;;;;1.23;0.40;;;30.90;46.50;;;;;;6196664;23;20048;-80
2022/09/22 12:31:58;;;;;;;1.13;0.50;;;30.80;45.80;;;;;;6221850;23;20042;-76
2022/09/22 12:34:31;;;;;;;2.90;0.60;;;31.70;46.00;;;;;;6222648;23;20000;-75
2022/09/22 12:37:13;;;;;;;1.20;0.30;;;32.20;44.80;;;;;;6222382;23;20007;-76
2022/09/22 12:39:44;;;;;;;1.17;0.40;;;32.60;45.40;;;;;;6223154;23;20011;-73
2022/09/22 12:42:21;;;;;;;1.17;0.30;;;32.00;44.40;;;;;;6222508;23;20301;-73
2022/09/22 12:44:55;;;;;;;1.00;0.30;;;30.80;45.00;;;;;;6222762;23;20243;-72
2022/09/22 12:47:31;;;;;;;2.10;0.40;;;30.70;45.30;;;;;;6223785;23;19996;-74
2022/09/22 12:49:58;;;;;;;1.13;0.30;;;31.70;45.10;;;;;;6222428;23;20004;-73
2022/09/22 12:52:39;;;;;;;2.78;0.47;;;32.40;44.80;;;;;;6222675;23;20048;-74
2022/09/22 12:55:38;;;;;;;1.70;0.40;;;31.50;43.40;;;;;;6222668;23;20001;-74
2022/09/22 12:58:26;;;;;;;0.85;0.30;;;32.00;43.80;;;;;;6222155;23;20027;-73
2022/09/22 13:00:57;;;;;;;1.83;0.40;;;30.70;44.70;;;;;;6208982;23;20023;-73
2022/09/22 13:03:23;;;;;;;2.30;0.30;;;30.80;46.00;;;;;;6221677;23;20020;-73
2022/09/22 13:06:02;;;;;;;1.08;0.30;;;32.40;46.70;;;;;;6222474;23;20000;-72
2022/09/22 13:08:31;;;;;;;1.08;0.30;;;33.80;43.90;;;;;;6222767;23;20005;-71
2022/09/22 13:11:05;;;;;;;1.60;0.32;;;34.90;43.30;;;;;;6221904;23;20048;-72
2022/09/22 13:13:31;;;;;;;0.93;0.40;;;36.00;42.20;;;;;;6222723;23;20008;-72
2022/09/22 13:15:59;;;;;;;1.67;0.40;;;35.10;41.30;;;;;;6222216;23;20004;-73
2022/09/22 13:18:35;;;;;;;1.77;0.40;;;35.10;41.60;;;;;;6222417;23;20027;-72
2022/09/22 13:21:11;;;;;;;1.10;0.40;;;35.40;42.10;;;;;;6221677;23;20007;-70
2022/09/22 13:23:38;;;;;;;1.45;0.20;;;34.90;40.50;;;;;;6222119;23;20000;-71
2022/09/22 13:26:11;;;;;;;1.02;0.40;;;33.40;40.80;;;;;;6195395;23;20000;-73
2022/09/22 13:28:40;;;;;;;0.85;0.30;;;32.90;41.30;;;;;;6222386;23;19997;-72
2022/09/22 13:31:15;;;;;;;1.83;0.40;;;33.90;42.20;;;;;;6195617;23;20004;-72
2022/09/22 13:33:41;;;;;;;1.40;0.43;;;35.30;41.00;;;;;;6195981;23;20004;-71
2022/09/22 13:36:10;;;;;;;1.30;0.40;;;36.10;41.40;;;;;;6220497;23;20004;-71
2022/09/22 13:38:49;;;;;;;2.20;0.32;;;36.80;40.10;;;;;;6221998;23;20001;-72
2022/09/22 13:41:24;;;;;;;1.08;0.40;;;36.50;39.10;;;;;;6222162;23;20175;-72
2022/09/22 13:43:57;;;;;;;2.55;0.52;;;35.30;40.30;;;;;;6222453;23;20001;-72
2022/09/22 13:46:29;;;;;;;1.45;0.28;;;36.20;40.30;;;;;;6222060;23;20012;-71
2022/09/22 13:48:57;;;;;;;1.55;0.63;;;36.30;40.60;;;;;;6221994;23;20183;-72
2022/09/22 13:51:23;;;;;;;;;;;36.50;39.40;;;;;;6222659;23;20060;-72
2022/09/22 13:53:51;;;;;;;1.13;0.30;;;36.20;39.20;;;;;;6221991;23;19904;-70
2022/09/22 13:56:19;;;;;;;1.40;0.40;;;36.30;40.00;;;;;;6221167;23;20013;-72
2022/09/22 13:58:48;;;;;;;2.15;0.32;;;37.30;40.00;;;;;;6196404;23;20055;-71
2022/09/22 14:01:20;;;;;;;3.40;0.50;;;37.60;39.40;;;;;;6221081;23;20156;-72
2022/09/22 14:03:46;;;;;;;2.97;0.40;;;38.10;40.10;;;;;;6222266;23;20005;-74
2022/09/22 14:06:19;;;;;;;1.67;0.30;;;38.10;38.40;;;;;;6221573;23;20004;-72
2022/09/22 14:08:47;;;;;;;3.33;3.03;;;37.70;37.30;;;;;;6221491;23;20001;-71
2022/09/22 14:11:21;;;;;;;2.70;2.08;;;37.30;38.00;;;;;;6220317;23;20301;-72
2022/09/22 14:13:53;;;;;;;1.42;0.30;;;37.60;38.10;;;;;;6221422;23;19996;-70
2022/09/22 14:16:27;;;;;;;2.13;0.30;;;37.40;38.50;;;;;;6218925;23;20054;-73
2022/09/22 14:18:57;;;;;;;1.55;0.25;;;38.00;38.10;;;;;;6194679;23;20048;-73
2022/09/22 14:21:23;;;;;;;1.52;0.30;;;37.50;37.20;;;;;;6220452;23;20247;-73
2022/09/22 14:23:50;;;;;;;1.38;0.30;;;36.70;39.00;;;;;;6221084;23;20011;-73
2022/09/22 14:26:46;;;;;;;0.95;0.30;;;37.00;38.20;;;;;;6222849;23;20015;-72
2022/09/22 14:29:29;;;;;;;0.60;0.30;;;36.80;38.10;;;;;;6190596;23;20259;-72
2022/09/22 14:32:06;;;;;;;2.97;0.45;;;37.00;38.00;;;;;;6196965;23;20023;-73
2022/09/22 14:34:33;;;;;;;1.60;0.50;;;36.80;38.80;;;;;;6223002;23;19996;-72
2022/09/22 14:37:08;;;;;;;1.95;0.45;;;37.00;38.70;;;;;;6196079;23;20191;-72
2022/09/22 14:39:38;;;;;;;3.13;2.45;;;37.60;38.70;;;;;;6223051;23;19997;-73
2022/09/22 14:42:15;;;;;;;1.08;0.60;;;38.10;37.70;;;;;;6223006;23;20011;-71
2022/09/22 14:44:45;;;;;;;1.00;0.50;;;37.70;38.30;;;;;;6223011;23;20008;-72
2022/09/22 14:47:19;;;;;;;0.85;0.30;;;38.00;37.40;;;;;;6195186;23;20031;-72
2022/09/22 14:49:47;;;;;;;2.38;1.45;;;38.40;37.30;;;;;;6224324;23;20027;-72
2022/09/22 14:52:27;;;;;;;;;;;38.10;36.60;;;;;;6226825;23;20001;-70
2022/09/22 14:54:58;;;;;;;1.58;0.40;;;38.00;37.60;;;;;;6204763;23;19907;-73
2022/09/22 14:57:25;;;;;;;2.08;0.40;;;38.00;37.30;;;;;;6222948;23;20310;-72
2022/09/22 15:02:48;;;;;;;1.17;0.40;;;38.10;36.80;;;;;;6221626;23;20072;-74
2022/09/22 15:05:24;;;;;;;2.13;0.60;;;37.20;37.60;;;;;;6220887;23;20001;-72
2022/09/22 15:07:50;;;;;;;1.20;0.40;;;36.40;36.80;;;;;;6222480;23;20011;-72
2022/09/22 15:10:26;;;;;;;1.17;0.40;;;36.40;37.10;;;;;;6220921;23;20045;-71
2022/09/22 15:12:53;;;;;;;1.88;0.40;;;37.40;37.30;;;;;;6221810;23;20471;-72
2022/09/22 15:15:21;;;;;;;1.15;0.40;;;37.60;39.00;;;;;;6221573;23;20000;-72
2022/09/22 15:20:51;;;;;;;1.83;0.40;;;36.30;36.90;;;;;;6220836;23;20001;-72
2022/09/22 15:23:26;;;;;;;1.20;0.40;;;36.10;37.80;;;;;;6220085;23;20106;-72
2022/09/22 15:25:53;;;;;;;1.15;0.40;;;35.10;38.00;;;;;;6220547;23;20336;-71
2022/09/22 15:28:23;;;;;;;1.58;0.45;;;35.80;39.60;;;;;;6220136;23;20004;-71
2022/09/22 15:30:50;;;;;;;2.10;1.02;;;36.70;37.30;;;;;;6195803;23;20003;-72
2022/09/22 15:33:17;;;;;;;4.28;2.35;;;36.50;37.30;;;;;;6221949;23;20001;-73
2022/09/22 15:35:46;;;;;;;1.15;0.40;;;36.70;37.40;;;;;;6219943;23;20016;-71
2022/09/22 15:38:16;;;;;;;1.58;0.40;;;36.60;37.20;;;;;;6195570;23;20227;-72
2022/09/22 15:40:42;;;;;;;3.40;0.60;;;35.80;37.50;;;;;;6222725;23;20003;-72
2022/09/22 15:43:13;;;;;;;2.03;0.60;;;35.00;37.80;;;;;;6222024;23;20024;-71
2022/09/22 15:45:47;;;;;;;0.90;0.40;;;34.90;39.20;;;;;;6221963;23;20051;-72
2022/09/22 15:48:24;;;;;;;1.00;0.52;;;35.00;39.60;;;;;;6221841;23;20004;-73
2022/09/22 15:50:50;;;;;;;1.60;0.43;;;35.20;39.10;;;;;;6196026;23;20062;-72
2022/09/22 15:53:16;;;;;;;1.40;0.50;;;36.00;38.40;;;;;;6221557;23;20064;-72
2022/09/22 15:55:42;;;;;;;1.45;0.40;;;36.50;38.70;;;;;;6222022;23;20311;-72
2022/09/22 15:58:12;;;;;;;2.70;0.50;;;36.50;38.30;;;;;;6222136;23;20012;-72
2022/09/22 16:00:38;;;;;;;1.70;0.50;;;35.60;38.20;;;;;;6221287;23;20191;-71
2022/09/22 16:03:18;;;;;;;1.50;0.38;;;34.20;38.50;;;;;;6221472;23;20147;-72
2022/09/22 16:05:44;;;;;;;1.65;0.60;;;32.60;40.10;;;;;;6222164;23;20012;-72
2022/09/22 16:08:14;;;;;;;1.65;0.63;;;31.50;41.00;;;;;;6221873;23;19992;-71
2022/09/22 16:10:40;;;;;;;2.58;1.02;;;31.00;41.50;;;;;;6221829;23;20067;-71
2022/09/22 16:13:08;;;;;;;1.92;0.60;;;31.10;41.20;;;;;;6221261;23;20001;-73
2022/09/22 16:15:34;;;;;;;3.30;0.75;;;30.30;42.00;;;;;;6221787;23;20047;-71
2022/09/22 16:17:59;;;;;;;1.15;0.40;;;30.30;42.40;;;;;;6223253;23;20016;-73
2022/09/22 16:20:25;;;;;;;2.10;0.57;;;31.20;42.40;;;;;;6219703;23;20032;-71
2022/09/22 16:22:51;;;;;;;3.75;3.13;;;31.00;42.30;;;;;;6221982;23;20008;-71
2022/09/22 16:25:18;;;;;;;2.75;0.70;;;30.20;42.10;;;;;;6195042;23;20245;-70
2022/09/22 16:27:43;;;;;;;2.70;1.30;;;28.50;43.50;;;;;;6222536;23;20020;-69
2022/09/22 16:30:11;;;;;;;6.05;3.50;;;27.00;45.30;;;;;;6221351;23;20055;-71
2022/09/22 16:32:37;;;;;;;1.98;1.10;;;25.50;47.50;;;;;;6221054;23;19997;-71
2022/09/22 16:35:02;;;;;;;3.10;1.00;;;24.00;49.70;;;;;;6221226;23;20071;-71
2022/09/22 16:37:28;;;;;;;1.92;0.88;;;23.10;51.00;;;;;;6195339;23;20286;-70
2022/09/22 16:39:54;;;;;;;3.88;0.60;;;22.40;52.20;;;;;;6222290;23;20060;-70
2022/09/22 16:42:20;;;;;;;2.58;0.70;;;21.60;53.70;;;;;;6221576;23;20000;-71
2022/09/22 16:44:46;;;;;;;2.88;0.70;;;21.10;54.70;;;;;;6220432;23;20000;-71
2022/09/22 16:47:12;;;;;;;2.20;0.73;;;20.50;55.00;;;;;;6221235;23;20048;-73
2022/09/22 16:49:39;;;;;;;2.08;0.88;;;20.30;56.10;;;;;;6222512;23;20042;-74
2022/09/22 16:52:09;;;;;;;1.98;0.73;;;20.00;56.20;;;;;;6221300;23;20286;-73
2022/09/22 16:54:35;;;;;;;2.95;1.00;;;19.80;57.10;;;;;;6170064;23;20001;-72
2022/09/22 16:57:00;;;;;;;2.45;0.80;;;19.60;57.50;;;;;;6193692;23;20043;-72
2022/09/22 16:59:27;;;;;;;3.10;1.10;;;19.50;57.70;;;;;;6194558;23;20044;-75
2022/09/22 17:01:53;;;;;;;2.10;0.68;;;19.30;58.70;;;;;;6221843;23;20016;-76
2022/09/22 17:04:19;;;;;;;1.83;0.80;;;19.20;58.70;;;;;;6221909;23;20028;-76
2022/09/22 17:06:45;;;;;;;3.08;1.00;;;19.00;58.90;;;;;;6222428;23;20039;-75
2022/09/22 17:09:13;;;;;;;4.15;1.05;;;18.90;59.60;;;;;;6195796;23;20001;-76
2022/09/22 17:11:44;;;;;;;1.77;0.80;;;18.70;59.90;;;;;;6195661;23;20028;-76
2022/09/22 17:14:20;;;;;;;2.42;1.20;;;18.60;61.10;;;;;;6195498;23;20150;-73
2022/09/22 17:16:48;;;;;;;2.83;0.98;;;18.50;60.50;;;;;;6221118;23;20020;-72
2022/09/22 17:19:18;;;;;;;2.70;1.02;;;18.30;61.10;;;;;;6221510;23;20027;-72
2022/09/22 17:21:45;;;;;;;3.38;1.60;;;18.20;61.70;;;;;;6221415;23;20008;-76
2022/09/22 17:24:13;;;;;;;3.47;1.15;;;18.00;62.10;;;;;;6221193;23;19997;-73
2022/09/22 17:26:47;;;;;;;2.50;1.20;;;17.90;63.20;;;;;;6222017;23;20005;-72
2022/09/22 17:29:24;;;;;;;3.58;1.30;;;17.80;63.40;;;;;;6221588;23;20023;-72
2022/09/22 17:31:51;;;;;;;9.10;6.88;;;17.60;64.00;;;;;;6221730;23;20239;-72
2022/09/22 17:34:17;;;;;;;3.08;1.65;;;17.40;64.60;;;;;;6220844;23;20009;-72
2022/09/22 17:36:43;;;;;;;2.53;1.20;;;17.30;64.60;;;;;;6221786;23;20259;-72
2022/09/22 17:39:09;;;;;;;2.72;0.95;;;17.20;65.30;;;;;;6220864;23;20027;-73
2022/09/22 17:41:36;;;;;;;3.10;1.33;;;17.00;65.20;;;;;;6222395;23;20012;-71
2022/09/22 17:44:03;;;;;;;4.28;1.42;;;16.90;66.20;;;;;;6222656;23;20000;-73
2022/09/22 17:46:33;;;;;;;4.72;1.50;;;16.80;66.50;;;;;;6221530;23;20028;-72
2022/09/22 17:57:25;;;;;;;3.53;1.73;;;16.20;69.20;;;;;;6221888;23;20008;-73
2022/09/22 17:59:51;;;;;;;2.22;1.20;;;16.10;69.80;;;;;;6223931;23;20016;-72
2022/09/22 18:02:19;;;;;;;3.45;1.48;;;16.00;69.80;;;;;;6223442;23;20060;-73
2022/09/22 18:04:46;;;;;;;4.72;1.70;;;15.90;70.60;;;;;;6198192;23;20206;-72
2022/09/22 18:07:16;;;;;;;3.95;1.70;;;15.80;70.80;;;;;;6224029;23;20001;-73
2022/09/22 18:09:44;;;;;;;4.00;2.05;;;15.70;71.60;;;;;;6224314;23;19997;-72
2022/09/22 18:12:13;;;;;;;4.37;1.87;;;15.70;71.40;;;;;;6223960;23;20313;-72
2022/09/22 18:14:45;;;;;;;4.35;1.80;;;15.60;71.40;;;;;;6224236;23;20266;-71
2022/09/22 18:17:17;;;;;;;4.47;1.80;;;15.50;71.90;;;;;;6223864;23;20005;-75
2022/09/22 18:19:44;;;;;;;3.85;1.80;;;15.40;72.20;;;;;;6224652;23;20071;-73
2022/09/22 18:22:15;;;;;;;4.82;1.98;;;15.30;72.50;;;;;;6197392;23;20240;-72
2022/09/22 18:24:44;;;;;;;5.70;1.85;;;15.20;72.70;;;;;;6223063;23;20001;-72
2022/09/22 18:27:13;;;;;;;3.72;1.90;;;15.10;73.10;;;;;;6196537;23;20052;-73
2022/09/22 18:29:38;;;;;;;15.50;9.25;;;15.10;73.50;;;;;;6224321;23;20295;-73
2022/09/22 18:32:04;;;;;;;17.15;12.82;;;15.00;74.10;;;;;;6224044;23;19996;-72
2022/09/22 18:34:30;;;;;;;7.97;4.82;;;14.80;74.30;;;;;;6223293;23;20000;-73
2022/09/22 18:36:57;;;;;;;5.15;2.78;;;14.80;74.90;;;;;;6196423;23;20007;-72
2022/09/22 18:39:27;;;;;;;4.72;2.13;;;14.70;75.00;;;;;;6224415;23;20023;-73
2022/09/22 18:41:53;;;;;;;6.15;2.63;;;14.70;75.40;;;;;;6218698;23;20040;-72